Terminal Aerodrome Forecast
Issued by NWS Newport/Morehead City, NC

Home | Current Version | Previous Version | Graphics & Text | Print | Product List | Glossary On
Versions: 1 2 3 4 5 6 7 8 9 10 11 12 13 14 15 16 17 18 19 20 21 22 23 24 25 26
000
FTUS42 KMHX 250500
TAFEWN
TAF
KEWN 250521Z 2506/2606 21008KT P6SM VCSH BKN040 BKN100
     FM250800 20004KT 2SM BR VCSH OVC010
     FM251500 30007KT 5SM BR VCSH OVC015
     FM251900 34005KT 4SM -RA BR OVC010=

USA.gov is the U.S. government's official web portal to all federal, state and local government web resources and services.